Time;durP1;ratioP1;P1;durP2;ratioP2;P2;SDS_P1;SDS_P2;PMS_P1;PMS_P2;Temp;Humidity;BMP_temperature;BMP_pressure;BME280_temperature;BME280_humidity;BME280_pressure;Samples;Min_cycle;Max_cycle;Signal;HPM_P1;HPM_P2
2023/08/30 00:00:39;;;;;;;39.83;36.08;;;11.90;99.90;;;;;;6105313;23;20084;-78
2023/08/30 00:03:06;;;;;;;41.92;37.53;;;12.00;99.90;;;;;;6105121;23;20513;-78
2023/08/30 00:05:31;;;;;;;42.20;36.65;;;12.00;99.90;;;;;;6105462;23;20450;-78
2023/08/30 00:07:57;;;;;;;36.00;32.67;;;12.00;99.90;;;;;;6105438;23;20064;-78
2023/08/30 00:10:23;;;;;;;55.03;42.60;;;12.00;99.90;;;;;;6129107;23;20014;-78
2023/08/30 00:12:49;;;;;;;37.88;34.45;;;12.00;99.90;;;;;;6103820;23;20013;-78
2023/08/30 00:15:14;;;;;;;69.35;46.25;;;12.10;99.90;;;;;;6104590;23;20018;-78
2023/08/30 00:17:40;;;;;;;53.08;42.75;;;12.10;99.90;;;;;;6129132;23;20013;-78
2023/08/30 00:20:06;;;;;;;69.18;47.63;;;12.20;99.90;;;;;;6129769;23;20009;-78
2023/08/30 00:22:33;;;;;;;163.68;67.10;;;12.20;99.90;;;;;;6105223;23;20013;-78
2023/08/30 00:24:59;;;;;;;45.42;40.53;;;12.20;99.90;;;;;;6104566;23;20040;-78
2023/08/30 00:27:24;;;;;;;36.33;32.55;;;12.20;99.90;;;;;;6129554;23;20017;-78
2023/08/30 00:29:50;;;;;;;34.67;31.48;;;12.20;99.90;;;;;;6104178;23;20101;-78
2023/08/30 00:32:15;;;;;;;36.55;32.97;;;12.10;99.90;;;;;;6129384;23;20075;-78
2023/08/30 00:34:41;;;;;;;34.60;31.48;;;12.20;99.90;;;;;;6128611;23;20013;-78
2023/08/30 00:37:08;;;;;;;34.08;31.02;;;12.10;99.90;;;;;;6129341;23;20455;-78
2023/08/30 00:39:34;;;;;;;31.70;28.73;;;12.10;99.90;;;;;;6105140;23;20072;-78
2023/08/30 00:42:04;;;;;;;33.92;30.58;;;12.10;99.90;;;;;;6129642;23;20454;-78
2023/08/30 00:44:30;;;;;;;40.05;34.80;;;12.10;99.90;;;;;;6104547;23;20454;-78
2023/08/30 00:46:55;;;;;;;33.78;30.70;;;12.00;99.90;;;;;;6128917;23;20020;-78
2023/08/30 00:49:21;;;;;;;39.20;34.97;;;12.00;99.90;;;;;;6129051;23;20024;-78
2023/08/30 00:51:47;;;;;;;35.28;32.20;;;12.00;99.90;;;;;;6105143;23;20017;-80
2023/08/30 00:54:12;;;;;;;33.83;30.70;;;12.00;99.90;;;;;;6129028;23;20053;-78
2023/08/30 00:56:38;;;;;;;36.17;32.67;;;12.10;99.90;;;;;;6104747;23;20014;-78
2023/08/30 00:59:04;;;;;;;33.95;30.80;;;12.00;99.90;;;;;;6104163;23;20037;-78
2023/08/30 01:01:29;;;;;;;34.55;31.40;;;12.00;99.90;;;;;;6129404;23;20465;-78
2023/08/30 01:03:55;;;;;;;35.58;31.92;;;12.00;99.90;;;;;;6128919;23;20013;-78
2023/08/30 01:06:20;;;;;;;35.75;32.30;;;12.00;99.90;;;;;;6128412;23;20013;-78
2023/08/30 01:08:46;;;;;;;34.03;30.15;;;12.00;99.90;;;;;;6104448;23;20140;-78
2023/08/30 01:11:19;;;;;;;29.52;26.88;;;12.00;99.90;;;;;;6105166;23;20197;-78
2023/08/30 01:13:53;;;;;;;33.80;30.60;;;12.10;99.90;;;;;;6128946;23;20341;-78
2023/08/30 01:16:21;;;;;;;29.17;26.30;;;12.00;99.90;;;;;;6128269;23;20064;-78
2023/08/30 01:18:48;;;;;;;52.40;35.78;;;12.00;99.90;;;;;;6128196;23;20319;-78
2023/08/30 01:21:26;;;;;;;28.52;25.98;;;12.00;99.90;;;;;;6129296;23;20013;-78
2023/08/30 01:24:00;;;;;;;33.25;30.05;;;12.00;99.90;;;;;;6104995;23;20006;-78
2023/08/30 01:26:39;;;;;;;32.70;29.52;;;11.90;99.90;;;;;;6128648;23;20041;-78
2023/08/30 01:29:05;;;;;;;31.88;28.88;;;11.90;99.90;;;;;;6104395;23;20400;-78
2023/08/30 01:31:35;;;;;;;29.90;27.40;;;11.90;99.90;;;;;;6129254;23;20014;-78
2023/08/30 01:34:04;;;;;;;37.33;33.60;;;11.90;99.90;;;;;;6128347;23;20446;-78
2023/08/30 01:36:31;;;;;;;38.25;34.67;;;11.90;99.90;;;;;;6104225;23;20390;-78
2023/08/30 01:38:59;;;;;;;38.17;34.42;;;11.90;99.90;;;;;;6128884;23;20394;-78
2023/08/30 01:41:26;;;;;;;37.20;33.47;;;11.90;99.90;;;;;;6129157;23;20052;-78
2023/08/30 01:43:53;;;;;;;32.15;29.33;;;12.00;99.90;;;;;;6104616;23;20013;-78
2023/08/30 01:46:20;;;;;;;49.90;35.55;;;12.00;99.90;;;;;;6103989;23;20045;-78
2023/08/30 01:48:47;;;;;;;35.63;32.22;;;12.00;99.90;;;;;;6128080;23;20009;-78
2023/08/30 01:51:15;;;;;;;36.55;33.13;;;12.00;99.90;;;;;;6104131;23;20021;-78
2023/08/30 01:53:44;;;;;;;34.25;31.17;;;12.00;99.90;;;;;;6128514;23;20013;-78
2023/08/30 01:56:09;;;;;;;40.78;36.58;;;12.00;99.90;;;;;;6104454;23;20010;-78
2023/08/30 01:58:35;;;;;;;38.00;34.55;;;12.00;99.90;;;;;;6127275;23;20064;-78
2023/08/30 02:01:01;;;;;;;53.85;42.88;;;12.00;99.90;;;;;;6104335;23;20016;-78
2023/08/30 02:03:26;;;;;;;42.95;38.45;;;12.10;99.90;;;;;;6104329;23;20093;-78
2023/08/30 02:05:57;;;;;;;40.30;36.05;;;12.10;99.90;;;;;;6128840;23;20140;-78
2023/08/30 02:08:29;;;;;;;46.88;40.70;;;12.10;99.90;;;;;;6103205;23;20446;-78
2023/08/30 02:11:04;;;;;;;36.83;33.30;;;12.10;99.90;;;;;;6128791;23;20013;-78
2023/08/30 02:13:30;;;;;;;36.20;32.78;;;12.10;99.90;;;;;;6103199;23;20013;-78
2023/08/30 02:16:00;;;;;;;37.63;33.83;;;12.10;99.90;;;;;;6128345;23;20014;-78
2023/08/30 02:18:26;;;;;;;37.70;34.30;;;12.20;99.90;;;;;;6103327;23;20014;-78
2023/08/30 02:20:53;;;;;;;35.67;32.05;;;12.20;99.90;;;;;;6127894;23;20060;-78
2023/08/30 02:23:18;;;;;;;34.85;31.60;;;12.10;99.90;;;;;;6128311;23;20017;-78
2023/08/30 02:25:44;;;;;;;36.35;32.13;;;12.10;99.90;;;;;;6103781;23;20044;-78
2023/08/30 02:28:10;;;;;;;36.38;31.58;;;12.10;99.90;;;;;;6127729;23;20095;-78
2023/08/30 02:30:35;;;;;;;32.03;28.98;;;12.10;99.90;;;;;;6128231;23;20103;-79
2023/08/30 02:33:01;;;;;;;36.35;32.13;;;11.90;99.90;;;;;;6103226;23;20443;-78
2023/08/30 02:35:27;;;;;;;41.60;37.13;;;11.90;99.90;;;;;;6128200;23;20327;-78
2023/08/30 02:37:52;;;;;;;38.85;33.92;;;11.80;99.90;;;;;;6103509;23;20064;-78
2023/08/30 02:40:18;;;;;;;36.58;32.63;;;11.70;99.90;;;;;;6104170;23;20253;-78
2023/08/30 02:42:43;;;;;;;35.05;31.63;;;11.70;99.90;;;;;;6128374;23;20102;-78
2023/08/30 02:45:09;;;;;;;50.80;38.00;;;11.60;99.90;;;;;;6103706;23;20014;-78
2023/08/30 02:47:35;;;;;;;37.15;33.42;;;11.60;99.90;;;;;;6103362;23;20016;-78
2023/08/30 02:50:01;;;;;;;38.17;34.25;;;11.60;99.90;;;;;;6127970;23;20149;-78
2023/08/30 02:52:26;;;;;;;35.63;32.33;;;11.50;99.90;;;;;;6127683;23;20013;-78
2023/08/30 02:54:52;;;;;;;52.08;37.38;;;11.50;99.90;;;;;;6103622;23;20045;-78
2023/08/30 02:57:17;;;;;;;42.53;36.63;;;11.50;99.90;;;;;;6127964;23;20017;-78
2023/08/30 02:59:43;;;;;;;36.75;33.22;;;11.50;99.90;;;;;;6128111;23;20075;-78
2023/08/30 03:02:08;;;;;;;78.50;45.20;;;11.50;99.90;;;;;;6128192;23;20109;-78
2023/08/30 03:04:34;;;;;;;46.05;37.42;;;11.50;99.90;;;;;;6127907;23;20010;-78
2023/08/30 03:07:00;;;;;;;38.60;34.58;;;11.50;99.90;;;;;;6128211;23;20395;-78
2023/08/30 03:09:25;;;;;;;41.58;35.97;;;11.50;99.90;;;;;;6103111;23;20017;-78
2023/08/30 03:11:51;;;;;;;37.35;33.85;;;11.50;99.90;;;;;;6103313;23;20045;-78
2023/08/30 03:14:16;;;;;;;60.53;40.22;;;11.50;99.90;;;;;;6127947;23;20074;-78
2023/08/30 03:16:44;;;;;;;39.08;34.85;;;11.50;99.90;;;;;;6127833;23;20067;-78
2023/08/30 03:19:10;;;;;;;40.28;35.97;;;11.50;99.90;;;;;;6103200;23;20465;-78
2023/08/30 03:21:35;;;;;;;37.17;33.67;;;11.50;99.90;;;;;;6128399;23;20037;-78
2023/08/30 03:24:01;;;;;;;102.15;49.20;;;11.50;99.90;;;;;;6128189;23;20021;-78
2023/08/30 03:26:26;;;;;;;38.97;35.25;;;11.50;99.90;;;;;;6127847;23;20021;-78
2023/08/30 03:28:52;;;;;;;44.47;39.78;;;11.50;99.90;;;;;;6102414;23;20020;-78
2023/08/30 03:31:19;;;;;;;72.72;46.95;;;11.50;99.90;;;;;;6103277;23;20010;-78
2023/08/30 03:33:46;;;;;;;50.85;40.15;;;11.50;99.90;;;;;;6103566;23;20446;-78
2023/08/30 03:36:13;;;;;;;36.40;32.47;;;11.50;99.90;;;;;;6128150;23;20013;-78
2023/08/30 03:38:39;;;;;;;42.63;38.22;;;11.60;99.90;;;;;;6102992;23;20016;-78
2023/08/30 03:41:05;;;;;;;34.65;31.48;;;11.60;99.90;;;;;;6103260;23;20017;-78
2023/08/30 03:43:31;;;;;;;38.60;34.80;;;11.60;99.90;;;;;;6127595;23;20006;-78
2023/08/30 03:45:57;;;;;;;37.17;33.42;;;11.60;99.90;;;;;;6127814;23;20033;-78
2023/08/30 03:48:23;;;;;;;40.03;36.03;;;11.70;99.90;;;;;;6103114;23;20112;-78
2023/08/30 03:50:48;;;;;;;50.05;41.50;;;11.70;99.90;;;;;;6128104;23;20017;-78
2023/08/30 03:53:14;;;;;;;39.70;35.53;;;11.70;99.90;;;;;;6128087;23;20018;-78
2023/08/30 03:55:41;;;;;;;54.10;43.17;;;11.70;99.90;;;;;;6128258;23;20013;-78
2023/08/30 03:58:06;;;;;;;40.65;36.65;;;11.80;99.90;;;;;;6102762;23;20020;-78
2023/08/30 04:00:32;;;;;;;39.05;35.17;;;11.80;99.90;;;;;;6127853;23;20041;-78
2023/08/30 04:02:57;;;;;;;36.05;32.58;;;11.80;99.90;;;;;;6103835;23;20013;-78
2023/08/30 04:05:23;;;;;;;31.48;28.77;;;11.90;99.90;;;;;;6127429;23;20350;-78
2023/08/30 04:07:49;;;;;;;37.72;33.83;;;11.90;99.90;;;;;;6129151;23;20013;-78
2023/08/30 04:10:14;;;;;;;39.10;35.00;;;11.90;99.90;;;;;;6129450;23;20013;-78
2023/08/30 04:12:40;;;;;;;49.95;40.33;;;11.90;99.90;;;;;;6129886;23;20017;-78
2023/08/30 04:15:06;;;;;;;52.35;40.72;;;11.90;99.90;;;;;;6129374;23;20092;-78
2023/08/30 04:17:31;;;;;;;38.50;34.80;;;12.00;99.90;;;;;;6104977;23;20017;-78
2023/08/30 04:19:57;;;;;;;35.55;32.42;;;12.00;99.90;;;;;;6105261;23;20045;-78
2023/08/30 04:22:22;;;;;;;36.58;33.00;;;12.00;99.90;;;;;;6128680;23;20017;-78
2023/08/30 04:24:48;;;;;;;39.45;35.53;;;12.00;99.90;;;;;;6128982;23;20010;-78
2023/08/30 04:27:14;;;;;;;40.33;36.28;;;12.00;99.90;;;;;;6104485;23;20005;-78
2023/08/30 04:29:40;;;;;;;35.35;32.03;;;12.00;99.90;;;;;;6129459;23;20016;-78
2023/08/30 04:32:05;;;;;;;33.67;30.48;;;12.00;99.90;;;;;;6105171;23;20017;-78
2023/08/30 04:34:32;;;;;;;37.25;33.63;;;12.00;99.90;;;;;;6128277;23;20493;-78
2023/08/30 04:36:58;;;;;;;37.95;34.13;;;12.00;99.90;;;;;;6128998;23;20084;-78
2023/08/30 04:39:23;;;;;;;38.80;34.83;;;12.00;99.90;;;;;;6104921;23;20063;-78
2023/08/30 04:41:49;;;;;;;28.63;26.15;;;12.10;99.90;;;;;;6129499;23;20013;-78
2023/08/30 04:44:16;;;;;;;35.75;32.25;;;12.10;99.90;;;;;;6104290;23;20025;-78
2023/08/30 04:46:41;;;;;;;31.67;28.77;;;12.00;99.90;;;;;;6129448;23;20446;-78
2023/08/30 04:49:07;;;;;;;40.63;35.78;;;12.10;99.90;;;;;;6128471;23;20128;-78
2023/08/30 04:51:32;;;;;;;36.22;32.83;;;12.10;99.90;;;;;;6128925;23;20032;-78
2023/08/30 04:53:58;;;;;;;33.75;30.35;;;12.10;99.90;;;;;;6104448;23;20013;-78
2023/08/30 04:56:24;;;;;;;38.13;34.13;;;12.10;99.90;;;;;;6129379;23;20068;-78
2023/08/30 04:58:50;;;;;;;34.75;31.33;;;12.10;99.90;;;;;;6128796;23;20014;-78
2023/08/30 05:01:16;;;;;;;36.90;33.03;;;12.10;99.90;;;;;;6129413;23;20156;-78
2023/08/30 05:03:42;;;;;;;34.70;31.42;;;12.10;99.90;;;;;;6128568;23;20462;-78
2023/08/30 05:06:07;;;;;;;36.20;32.60;;;12.10;99.90;;;;;;6129264;23;20006;-78
2023/08/30 05:08:33;;;;;;;35.17;31.45;;;12.20;99.90;;;;;;6104622;23;20014;-78
2023/08/30 05:10:58;;;;;;;29.77;27.13;;;12.20;99.90;;;;;;6104580;23;20064;-78
2023/08/30 05:13:24;;;;;;;33.60;30.27;;;12.20;99.90;;;;;;6129126;23;20017;-78
2023/08/30 05:15:49;;;;;;;31.33;28.25;;;12.20;99.90;;;;;;6128413;23;20052;-78
2023/08/30 05:18:15;;;;;;;32.47;29.38;;;12.20;99.90;;;;;;6128011;23;20020;-78
2023/08/30 05:20:41;;;;;;;26.35;23.98;;;12.20;99.90;;;;;;6128664;23;20462;-78
2023/08/30 05:23:06;;;;;;;31.75;28.85;;;12.20;99.90;;;;;;6128714;23;20013;-78
2023/08/30 05:25:32;;;;;;;42.20;31.77;;;12.20;99.90;;;;;;6127673;23;20021;-78
2023/08/30 05:27:57;;;;;;;36.22;32.22;;;12.20;99.90;;;;;;6128169;23;20009;-78
2023/08/30 05:30:23;;;;;;;33.35;30.15;;;12.20;99.90;;;;;;6128673;23;20017;-78
2023/08/30 05:36:10;;;;;;;30.05;27.13;;;12.30;99.90;;;;;;6127975;23;20024;-78
2023/08/30 05:38:36;;;;;;;26.92;24.23;;;12.30;99.90;;;;;;6128361;23;20345;-78
2023/08/30 05:41:02;;;;;;;30.42;27.63;;;12.30;99.90;;;;;;6128480;23;20009;-78
2023/08/30 05:46:49;;;;;;;35.33;31.77;;;12.40;99.90;;;;;;6127813;23;20409;-78
2023/08/30 05:49:15;;;;;;;32.10;29.13;;;12.50;99.90;;;;;;6103576;23;20013;-78
2023/08/30 05:51:41;;;;;;;28.20;25.42;;;12.50;99.90;;;;;;6128445;23;20446;-78
2023/08/30 05:54:06;;;;;;;33.33;30.02;;;12.50;99.90;;;;;;6103956;23;20032;-78
2023/08/30 05:56:32;;;;;;;27.00;24.65;;;12.60;99.90;;;;;;6102671;23;20041;-78
2023/08/30 05:58:58;;;;;;;51.20;36.60;;;12.60;99.90;;;;;;6127891;23;20010;-79
2023/08/30 06:01:24;;;;;;;28.95;26.20;;;12.60;99.90;;;;;;6125745;23;20022;-77
2023/08/30 06:03:50;;;;;;;33.60;30.13;;;12.70;99.90;;;;;;6125879;23;20006;-79
2023/08/30 06:06:16;;;;;;;30.65;27.63;;;12.70;99.90;;;;;;6126652;23;20382;-77
2023/08/30 06:08:41;;;;;;;36.30;32.45;;;12.80;99.90;;;;;;6128120;23;20010;-77
2023/08/30 06:11:07;;;;;;;31.40;28.30;;;12.80;99.90;;;;;;6128254;23;20088;-77
2023/08/30 06:13:32;;;;;;;33.35;30.13;;;12.90;99.90;;;;;;6103755;23;20013;-77
2023/08/30 06:15:58;;;;;;;29.45;26.70;;;12.90;99.90;;;;;;6128113;23;20009;-78
2023/08/30 06:18:23;;;;;;;30.80;27.90;;;13.00;99.90;;;;;;6126422;23;20014;-78
2023/08/30 06:20:49;;;;;;;28.13;25.52;;;13.00;99.90;;;;;;6128578;23;20088;-78
2023/08/30 06:23:18;;;;;;;28.17;25.63;;;13.10;99.90;;;;;;6127499;23;20327;-77
2023/08/30 06:25:44;;;;;;;28.33;25.77;;;13.00;99.90;;;;;;6127020;23;20477;-78
2023/08/30 06:28:09;;;;;;;29.83;27.02;;;13.10;99.90;;;;;;6127181;23;20006;-77
2023/08/30 06:30:35;;;;;;;26.80;24.20;;;13.10;99.90;;;;;;6126812;23;20378;-79
2023/08/30 06:33:01;;;;;;;26.77;24.38;;;13.20;99.90;;;;;;6103559;23;20096;-78
2023/08/30 06:35:26;;;;;;;27.70;25.02;;;13.20;99.90;;;;;;6128191;23;20020;-77
2023/08/30 06:37:52;;;;;;;24.42;22.15;;;13.30;99.90;;;;;;6128161;23;20064;-78
2023/08/30 06:40:18;;;;;;;26.60;24.13;;;13.30;99.90;;;;;;6127409;23;20341;-78
2023/08/30 06:42:43;;;;;;;28.08;25.58;;;13.40;99.90;;;;;;6128366;23;20013;-78
2023/08/30 06:45:09;;;;;;;29.13;26.33;;;13.40;99.90;;;;;;6128579;23;20032;-78
2023/08/30 06:47:35;;;;;;;26.30;23.88;;;13.40;99.90;;;;;;6127469;23;20045;-81
2023/08/30 06:50:01;;;;;;;25.88;23.52;;;13.30;99.90;;;;;;6128117;23;20017;-80
2023/08/30 06:52:26;;;;;;;31.60;28.17;;;13.30;99.90;;;;;;6127777;23;20052;-80
2023/08/30 06:54:52;;;;;;;25.20;22.88;;;13.30;99.90;;;;;;6127847;23;20014;-80
2023/08/30 06:57:18;;;;;;;25.55;23.17;;;13.30;99.90;;;;;;6128041;23;20512;-80
2023/08/30 06:59:43;;;;;;;25.52;23.13;;;13.30;99.90;;;;;;6127190;23;20017;-80
2023/08/30 07:02:09;;;;;;;24.60;22.40;;;13.20;99.90;;;;;;6103403;23;20072;-77
2023/08/30 07:04:34;;;;;;;26.00;23.65;;;13.30;99.90;;;;;;6127478;23;20349;-77
2023/08/30 07:07:00;;;;;;;26.20;23.70;;;13.30;99.90;;;;;;6103661;23;20012;-77
2023/08/30 07:09:28;;;;;;;30.27;27.23;;;13.30;99.90;;;;;;6127592;23;20064;-77
2023/08/30 07:11:58;;;;;;;25.75;23.25;;;13.40;99.90;;;;;;6127600;23;20151;-76
2023/08/30 07:14:23;;;;;;;29.80;27.00;;;13.50;99.90;;;;;;6126318;23;20454;-77
2023/08/30 07:16:49;;;;;;;27.63;25.08;;;13.60;99.90;;;;;;6126661;23;20013;-77
2023/08/30 07:19:15;;;;;;;29.63;26.92;;;13.80;99.90;;;;;;6126052;23;20073;-79
2023/08/30 07:21:44;;;;;;;29.63;26.92;;;14.00;99.90;;;;;;6127562;23;20013;-78
2023/08/30 07:24:10;;;;;;;27.63;25.13;;;14.10;99.90;;;;;;6127720;23;20010;-77
2023/08/30 07:26:36;;;;;;;25.63;23.17;;;14.30;99.90;;;;;;6104102;23;20068;-78
2023/08/30 07:29:04;;;;;;;29.02;26.38;;;14.50;99.90;;;;;;6128172;23;20010;-78
2023/08/30 07:31:31;;;;;;;24.50;22.45;;;14.60;99.90;;;;;;6128023;23;20044;-79
2023/08/30 07:33:58;;;;;;;24.25;21.95;;;14.70;99.90;;;;;;6127882;23;20013;-77
2023/08/30 07:36:23;;;;;;;26.80;24.55;;;14.70;99.90;;;;;;6103599;23;20017;-79
2023/08/30 07:38:49;;;;;;;26.60;24.23;;;14.80;99.90;;;;;;6127756;23;20350;-79
2023/08/30 07:41:14;;;;;;;24.92;22.73;;;14.80;99.90;;;;;;6129898;23;20017;-79
2023/08/30 07:43:40;;;;;;;25.92;23.60;;;14.80;99.90;;;;;;6104397;23;20350;-80
2023/08/30 07:46:05;;;;;;;21.88;19.90;;;14.80;99.90;;;;;;6129259;23;20088;-79
2023/08/30 07:48:31;;;;;;;24.40;22.20;;;14.80;99.90;;;;;;6128813;23;20014;-79
2023/08/30 07:50:56;;;;;;;27.10;24.40;;;14.80;99.90;;;;;;6105788;23;20016;-79
2023/08/30 07:53:56;;;;;;;22.48;20.55;;;14.80;99.90;;;;;;6129889;23;20088;-79
2023/08/30 07:56:22;;;;;;;22.73;20.67;;;14.80;99.90;;;;;;6129064;23;20021;-79
2023/08/30 07:58:47;;;;;;;24.23;21.98;;;14.80;99.90;;;;;;6128399;23;20380;-78
2023/08/30 08:01:13;;;;;;;25.25;22.85;;;14.80;99.90;;;;;;6129476;23;20028;-79
2023/08/30 08:03:40;;;;;;;23.23;21.27;;;14.80;99.90;;;;;;6130342;23;20020;-79
2023/08/30 08:06:06;;;;;;;22.70;20.63;;;14.80;99.90;;;;;;6130223;23;20013;-78
2023/08/30 08:08:31;;;;;;;21.75;19.85;;;14.70;99.90;;;;;;6129891;23;20013;-79
2023/08/30 08:10:59;;;;;;;23.23;21.10;;;14.70;99.90;;;;;;6131135;23;20020;-79
2023/08/30 08:13:25;;;;;;;25.80;23.45;;;14.60;99.90;;;;;;6130755;23;20020;-78
2023/08/30 08:15:51;;;;;;;24.77;22.48;;;14.60;99.90;;;;;;6132074;23;20453;-78
2023/08/30 08:18:16;;;;;;;24.95;22.73;;;14.60;99.90;;;;;;6103963;23;20024;-79
2023/08/30 08:20:42;;;;;;;27.23;24.60;;;14.60;99.90;;;;;;6129713;23;20048;-78
2023/08/30 08:23:08;;;;;;;29.58;26.70;;;14.60;99.90;;;;;;6130050;23;20151;-78
2023/08/30 08:25:34;;;;;;;26.38;23.88;;;14.60;99.90;;;;;;6131050;23;20630;-78
2023/08/30 08:27:59;;;;;;;27.95;25.25;;;14.60;99.90;;;;;;6130951;23;20386;-78
2023/08/30 08:30:25;;;;;;;26.10;23.67;;;14.50;99.90;;;;;;6107626;23;20048;-78
2023/08/30 08:32:50;;;;;;;29.20;26.30;;;14.40;99.90;;;;;;6106702;23;20017;-78
2023/08/30 08:35:16;;;;;;;30.52;27.38;;;14.40;99.90;;;;;;6129898;23;20092;-78
2023/08/30 08:37:42;;;;;;;28.17;25.38;;;14.40;99.90;;;;;;6128669;23;20028;-78
2023/08/30 08:40:08;;;;;;;30.08;26.92;;;14.30;99.90;;;;;;6105438;23;20392;-78
2023/08/30 08:42:35;;;;;;;32.17;28.38;;;14.20;99.90;;;;;;6131319;23;20390;-79
2023/08/30 08:45:03;;;;;;;31.98;28.65;;;14.20;99.90;;;;;;6131138;23;20108;-79
2023/08/30 08:47:30;;;;;;;27.70;25.15;;;14.20;99.90;;;;;;6129380;23;20016;-78
2023/08/30 08:49:56;;;;;;;28.27;25.70;;;14.10;99.90;;;;;;6127955;23;20477;-79
2023/08/30 08:52:23;;;;;;;35.55;30.75;;;14.00;99.90;;;;;;6128607;23;20017;-79
2023/08/30 08:54:49;;;;;;;28.65;26.00;;;13.90;99.90;;;;;;6129545;23;20088;-79
2023/08/30 08:57:15;;;;;;;29.98;26.85;;;13.90;99.90;;;;;;6104357;23;20056;-79
2023/08/30 08:59:41;;;;;;;42.67;29.88;;;13.80;99.90;;;;;;6128231;23;20010;-79
2023/08/30 09:02:07;;;;;;;34.30;29.83;;;13.80;99.90;;;;;;6128910;23;20013;-79
2023/08/30 09:04:33;;;;;;;62.95;35.97;;;13.70;99.90;;;;;;6129669;23;20320;-79
2023/08/30 09:07:00;;;;;;;28.83;25.98;;;13.70;99.90;;;;;;6129630;23;20052;-79
2023/08/30 09:09:26;;;;;;;33.70;26.13;;;13.70;99.90;;;;;;6103404;23;20048;-79
2023/08/30 09:11:51;;;;;;;29.70;25.67;;;13.70;99.90;;;;;;6129991;23;20017;-79
2023/08/30 09:14:18;;;;;;;29.48;26.25;;;13.70;99.90;;;;;;6107233;23;20018;-79
2023/08/30 09:16:58;;;;;;;36.00;29.10;;;13.70;99.90;;;;;;6130197;23;20484;-79
2023/08/30 09:19:24;;;;;;;36.45;28.00;;;13.70;99.90;;;;;;6130294;23;20045;-79
2023/08/30 09:21:59;;;;;;;29.17;24.50;;;13.70;99.90;;;;;;6131970;23;20018;-79
2023/08/30 09:24:25;;;;;;;26.88;22.92;;;13.80;99.90;;;;;;6131971;23;20346;-79
2023/08/30 09:26:53;;;;;;;28.65;24.60;;;13.80;99.90;;;;;;6130864;23;20009;-78
2023/08/30 09:29:21;;;;;;;27.40;23.85;;;13.80;99.90;;;;;;6130474;23;20077;-79
2023/08/30 09:31:54;;;;;;;24.52;22.10;;;13.90;99.90;;;;;;6131268;23;20025;-79
2023/08/30 09:34:26;;;;;;;23.05;20.77;;;13.90;99.90;;;;;;6106985;23;20036;-80
2023/08/30 09:36:53;;;;;;;42.85;29.33;;;14.00;99.90;;;;;;6106699;23;20098;-80
2023/08/30 09:39:19;;;;;;;33.55;29.17;;;14.10;99.90;;;;;;6131132;23;20064;-79
2023/08/30 09:41:49;;;;;;;31.58;28.23;;;14.30;99.90;;;;;;6107632;23;20351;-80
2023/08/30 09:44:21;;;;;;;28.05;24.00;;;14.50;99.90;;;;;;6132787;23;20024;-79
2023/08/30 09:46:52;;;;;;;44.40;31.83;;;14.70;99.90;;;;;;6106326;23;20023;-80
2023/08/30 09:49:25;;;;;;;24.65;22.25;;;14.80;99.90;;;;;;6132211;23;20013;-80
2023/08/30 09:51:51;;;;;;;;;;;15.10;99.90;;;;;;6108615;23;20032;-79
2023/08/30 09:54:24;;;;;;;27.02;24.50;;;15.20;99.90;;;;;;6133126;23;20232;-79
2023/08/30 09:56:53;;;;;;;22.25;20.05;;;15.50;99.90;;;;;;6131679;23;20092;-79
2023/08/30 09:59:19;;;;;;;28.35;25.42;;;15.70;99.90;;;;;;6107379;23;20092;-79
2023/08/30 10:01:48;;;;;;;20.77;18.98;;;15.90;99.90;;;;;;6132253;23;20564;-80
2023/08/30 10:04:14;;;;;;;24.40;21.98;;;16.10;99.90;;;;;;6106445;23;20060;-78
2023/08/30 10:06:40;;;;;;;18.08;16.48;;;16.20;99.90;;;;;;6133420;23;20439;-79
2023/08/30 10:09:10;;;;;;;19.17;17.38;;;16.10;99.90;;;;;;6131004;23;20092;-80
2023/08/30 10:11:37;;;;;;;18.30;16.63;;;15.90;99.90;;;;;;6131572;23;20064;-78
2023/08/30 10:14:07;;;;;;;22.17;19.77;;;15.80;99.90;;;;;;6132659;23;20238;-79
2023/08/30 10:16:42;;;;;;;19.00;17.30;;;15.60;99.90;;;;;;6132300;23;20064;-78
2023/08/30 10:19:11;;;;;;;17.17;15.68;;;15.50;99.90;;;;;;6131750;23;20156;-78
2023/08/30 10:21:37;;;;;;;19.83;18.13;;;15.30;99.90;;;;;;6128079;23;20017;-79
2023/08/30 10:24:06;;;;;;;22.77;20.48;;;15.20;99.90;;;;;;6127294;23;20449;-77
2023/08/30 10:26:33;;;;;;;21.63;19.70;;;15.10;99.90;;;;;;6103389;23;20449;-77
2023/08/30 10:28:59;;;;;;;19.00;17.25;;;15.00;99.90;;;;;;6127840;23;20014;-78
2023/08/30 10:31:27;;;;;;;24.70;21.88;;;15.00;99.90;;;;;;6129178;23;20032;-78
2023/08/30 10:33:54;;;;;;;21.55;19.67;;;14.90;99.90;;;;;;6128496;23;20022;-78
2023/08/30 10:36:23;;;;;;;21.63;19.70;;;14.80;99.90;;;;;;6128609;23;20016;-78
2023/08/30 10:38:50;;;;;;;22.98;20.83;;;14.80;99.90;;;;;;6127209;23;20315;-78
2023/08/30 10:41:26;;;;;;;18.48;16.77;;;14.70;99.90;;;;;;6128317;23;20017;-79
2023/08/30 10:43:57;;;;;;;22.05;20.05;;;14.70;99.90;;;;;;6103978;23;20386;-79
2023/08/30 10:46:35;;;;;;;25.33;22.83;;;14.60;99.90;;;;;;6127547;23;20017;-78
2023/08/30 10:49:16;;;;;;;19.48;17.77;;;14.60;99.90;;;;;;6103517;23;20085;-78
2023/08/30 10:51:43;;;;;;;26.63;24.00;;;14.50;99.90;;;;;;6128632;23;20009;-78
2023/08/30 10:54:16;;;;;;;22.00;20.00;;;14.50;99.90;;;;;;6128912;23;20010;-78
2023/08/30 10:56:55;;;;;;;20.88;19.08;;;14.50;99.90;;;;;;6128952;23;20342;-78
2023/08/30 10:59:22;;;;;;;26.13;23.70;;;14.50;99.90;;;;;;6128096;23;20014;-78
2023/08/30 11:01:50;;;;;;;27.48;24.85;;;14.50;99.90;;;;;;6129103;23;20013;-78
2023/08/30 11:04:17;;;;;;;22.90;20.88;;;14.50;99.90;;;;;;6104595;23;20488;-77
2023/08/30 11:06:45;;;;;;;26.65;24.13;;;14.50;99.90;;;;;;6128111;23;20056;-81
2023/08/30 11:09:13;;;;;;;22.67;20.67;;;14.50;99.90;;;;;;6102659;23;20045;-81
2023/08/30 11:11:39;;;;;;;29.20;25.88;;;14.50;99.90;;;;;;6127805;23;20386;-80
2023/08/30 11:14:08;;;;;;;26.25;23.85;;;14.50;99.90;;;;;;6105910;23;20014;-81
2023/08/30 11:16:37;;;;;;;31.20;27.83;;;14.50;99.90;;;;;;6131831;23;20407;-81
2023/08/30 11:19:04;;;;;;;30.25;27.10;;;14.50;99.90;;;;;;6106687;23;20505;-81
2023/08/30 11:21:36;;;;;;;33.60;27.70;;;14.50;99.90;;;;;;6107611;23;20092;-81
2023/08/30 11:24:03;;;;;;;37.42;29.75;;;14.50;99.90;;;;;;6107854;23;20356;-82
2023/08/30 11:26:29;;;;;;;31.40;28.13;;;14.50;99.90;;;;;;6107917;23;20010;-81
2023/08/30 11:28:54;;;;;;;26.42;23.92;;;14.50;99.90;;;;;;6107480;23;20005;-81
2023/08/30 11:31:22;;;;;;;34.95;28.50;;;14.50;99.90;;;;;;6108255;23;20509;-81
2023/08/30 11:33:55;;;;;;;26.77;24.20;;;14.50;99.90;;;;;;6109188;23;20006;-81
2023/08/30 11:36:23;;;;;;;29.20;26.23;;;14.50;99.90;;;;;;6133877;23;20009;-81
2023/08/30 11:38:52;;;;;;;32.92;28.63;;;14.50;99.90;;;;;;6134449;23;20009;-81
2023/08/30 11:41:20;;;;;;;30.25;27.10;;;14.50;99.90;;;;;;6134719;23;20088;-81
2023/08/30 11:43:46;;;;;;;33.70;29.38;;;14.50;99.90;;;;;;6110874;23;20013;-81
2023/08/30 11:46:12;;;;;;;29.25;26.25;;;14.50;99.90;;;;;;6110563;23;20010;-81
2023/08/30 11:48:39;;;;;;;36.03;29.38;;;14.50;99.90;;;;;;6134656;23;20064;-81
2023/08/30 11:51:05;;;;;;;32.03;28.75;;;14.50;99.90;;;;;;6135530;23;20073;-81
2023/08/30 11:53:31;;;;;;;34.13;30.52;;;14.60;99.90;;;;;;6110874;23;20084;-81
2023/08/30 11:55:57;;;;;;;28.48;25.83;;;14.70;99.90;;;;;;6112045;23;20021;-82
2023/08/30 11:58:23;;;;;;;29.15;25.80;;;14.80;99.90;;;;;;6110553;23;20013;-82
2023/08/30 12:00:54;;;;;;;33.70;28.60;;;14.80;99.90;;;;;;6111231;23;20006;-82
2023/08/30 12:03:20;;;;;;;30.35;26.95;;;14.90;99.90;;;;;;6136775;23;20056;-82
2023/08/30 12:05:46;;;;;;;23.35;21.25;;;15.00;99.90;;;;;;6111796;23;20033;-82
2023/08/30 12:08:42;;;;;;;26.88;24.33;;;15.10;99.90;;;;;;6135822;23;20013;-82
2023/08/30 12:11:19;;;;;;;25.27;22.77;;;15.10;99.90;;;;;;6092041;23;20378;-82
2023/08/30 12:13:44;;;;;;;25.80;23.40;;;15.20;99.90;;;;;;6111018;23;20450;-82
2023/08/30 12:16:17;;;;;;;25.13;22.70;;;15.20;99.90;;;;;;6135789;23;20013;-81
2023/08/30 12:18:42;;;;;;;25.63;23.00;;;15.30;99.90;;;;;;6135345;23;20024;-82
2023/08/30 12:21:08;;;;;;;19.55;17.95;;;15.40;99.90;;;;;;6111557;23;20005;-82
2023/08/30 12:23:34;;;;;;;24.27;21.83;;;15.40;99.90;;;;;;6111123;23;20450;-81
2023/08/30 12:26:03;;;;;;;16.45;15.15;;;15.40;99.90;;;;;;6111369;23;20010;-81
2023/08/30 12:28:30;;;;;;;18.60;16.90;;;15.50;99.90;;;;;;6111153;23;20009;-81
2023/08/30 12:30:57;;;;;;;21.45;19.23;;;15.50;99.90;;;;;;6136310;23;20391;-82
2023/08/30 12:33:25;;;;;;;16.17;14.88;;;15.50;99.90;;;;;;6111954;23;20013;-81